sensor_id;sensor_type;location;lat;lon;timestamp;P1;durP1;ratioP1;P2;durP2;ratioP2
57746;SDS011;43580;44.014;20.466;2022-07-21T00:01:44;8.45;;;3.10;;
57746;SDS011;43580;44.014;20.466;2022-07-21T00:04:10;7.03;;;3.15;;
57746;SDS011;43580;44.014;20.466;2022-07-21T00:06:36;8.15;;;3.75;;
57746;SDS011;43580;44.014;20.466;2022-07-21T00:09:02;7.75;;;3.60;;
57746;SDS011;43580;44.014;20.466;2022-07-21T00:11:28;6.55;;;3.30;;
57746;SDS011;43580;44.014;20.466;2022-07-21T00:13:54;9.48;;;3.72;;
57746;SDS011;43580;44.014;20.466;2022-07-21T00:16:20;9.88;;;3.58;;
57746;SDS011;43580;44.014;20.466;2022-07-21T00:18:46;6.22;;;3.63;;
57746;SDS011;43580;44.014;20.466;2022-07-21T00:21:12;6.15;;;3.72;;
57746;SDS011;43580;44.014;20.466;2022-07-21T00:23:38;6.75;;;3.45;;
57746;SDS011;43580;44.014;20.466;2022-07-21T00:26:05;6.93;;;3.30;;
57746;SDS011;43580;44.014;20.466;2022-07-21T00:28:31;6.68;;;3.58;;
57746;SDS011;43580;44.014;20.466;2022-07-21T00:30:57;9.77;;;3.53;;
57746;SDS011;43580;44.014;20.466;2022-07-21T00:33:23;6.60;;;3.50;;
57746;SDS011;43580;44.014;20.466;2022-07-21T00:35:49;8.25;;;3.55;;
57746;SDS011;43580;44.014;20.466;2022-07-21T00:38:15;7.20;;;3.30;;
57746;SDS011;43580;44.014;20.466;2022-07-21T00:40:41;6.57;;;3.30;;
57746;SDS011;43580;44.014;20.466;2022-07-21T00:43:09;7.47;;;3.03;;
57746;SDS011;43580;44.014;20.466;2022-07-21T00:45:36;7.72;;;3.22;;
57746;SDS011;43580;44.014;20.466;2022-07-21T00:48:04;7.43;;;3.72;;
57746;SDS011;43580;44.014;20.466;2022-07-21T00:50:33;13.13;;;4.28;;
57746;SDS011;43580;44.014;20.466;2022-07-21T00:52:59;6.05;;;3.15;;
57746;SDS011;43580;44.014;20.466;2022-07-21T00:55:25;8.73;;;3.20;;
57746;SDS011;43580;44.014;20.466;2022-07-21T00:57:52;7.00;;;3.80;;
57746;SDS011;43580;44.014;20.466;2022-07-21T01:00:20;7.55;;;4.10;;
57746;SDS011;43580;44.014;20.466;2022-07-21T01:02:47;7.43;;;4.22;;
57746;SDS011;43580;44.014;20.466;2022-07-21T01:05:13;6.25;;;3.90;;
57746;SDS011;43580;44.014;20.466;2022-07-21T01:07:40;6.10;;;3.78;;
57746;SDS011;43580;44.014;20.466;2022-07-21T01:10:07;11.15;;;4.07;;
57746;SDS011;43580;44.014;20.466;2022-07-21T01:12:33;7.00;;;3.65;;
57746;SDS011;43580;44.014;20.466;2022-07-21T01:14:59;9.63;;;3.70;;
57746;SDS011;43580;44.014;20.466;2022-07-21T01:17:25;5.10;;;3.35;;
57746;SDS011;43580;44.014;20.466;2022-07-21T01:19:54;8.60;;;3.88;;
57746;SDS011;43580;44.014;20.466;2022-07-21T01:22:20;6.15;;;3.92;;
57746;SDS011;43580;44.014;20.466;2022-07-21T01:24:46;10.82;;;3.83;;
57746;SDS011;43580;44.014;20.466;2022-07-21T01:27:12;5.40;;;3.85;;
57746;SDS011;43580;44.014;20.466;2022-07-21T01:29:40;9.40;;;3.55;;
57746;SDS011;43580;44.014;20.466;2022-07-21T01:32:06;7.72;;;3.53;;
57746;SDS011;43580;44.014;20.466;2022-07-21T01:34:33;9.50;;;3.60;;
57746;SDS011;43580;44.014;20.466;2022-07-21T01:36:59;10.93;;;3.58;;
57746;SDS011;43580;44.014;20.466;2022-07-21T01:39:25;9.75;;;3.47;;
57746;SDS011;43580;44.014;20.466;2022-07-21T01:42:09;6.57;;;3.53;;
57746;SDS011;43580;44.014;20.466;2022-07-21T01:44:35;6.57;;;3.72;;
57746;SDS011;43580;44.014;20.466;2022-07-21T01:47:01;6.47;;;4.07;;
57746;SDS011;43580;44.014;20.466;2022-07-21T01:49:27;7.28;;;3.40;;
57746;SDS011;43580;44.014;20.466;2022-07-21T01:51:53;6.93;;;3.80;;
57746;SDS011;43580;44.014;20.466;2022-07-21T01:54:20;6.55;;;3.85;;
57746;SDS011;43580;44.014;20.466;2022-07-21T01:56:46;5.63;;;3.47;;
57746;SDS011;43580;44.014;20.466;2022-07-21T01:59:12;7.00;;;4.10;;
57746;SDS011;43580;44.014;20.466;2022-07-21T02:01:38;6.03;;;3.90;;
57746;SDS011;43580;44.014;20.466;2022-07-21T02:04:04;6.13;;;3.60;;
57746;SDS011;43580;44.014;20.466;2022-07-21T02:06:31;6.47;;;4.28;;
57746;SDS011;43580;44.014;20.466;2022-07-21T02:08:57;9.27;;;3.70;;
57746;SDS011;43580;44.014;20.466;2022-07-21T02:11:23;7.63;;;3.88;;
57746;SDS011;43580;44.014;20.466;2022-07-21T02:13:52;7.45;;;3.88;;
57746;SDS011;43580;44.014;20.466;2022-07-21T02:16:21;11.93;;;4.40;;
57746;SDS011;43580;44.014;20.466;2022-07-21T02:18:47;9.27;;;4.45;;
57746;SDS011;43580;44.014;20.466;2022-07-21T02:21:13;7.07;;;4.00;;
57746;SDS011;43580;44.014;20.466;2022-07-21T02:23:39;7.43;;;4.25;;
57746;SDS011;43580;44.014;20.466;2022-07-21T02:26:05;6.28;;;3.78;;
57746;SDS011;43580;44.014;20.466;2022-07-21T02:28:31;8.38;;;4.20;;
57746;SDS011;43580;44.014;20.466;2022-07-21T02:31:00;7.25;;;3.75;;
57746;SDS011;43580;44.014;20.466;2022-07-21T02:33:26;6.10;;;4.07;;
57746;SDS011;43580;44.014;20.466;2022-07-21T02:35:54;7.10;;;3.60;;
57746;SDS011;43580;44.014;20.466;2022-07-21T02:38:21;5.10;;;3.65;;
57746;SDS011;43580;44.014;20.466;2022-07-21T02:40:47;5.63;;;3.90;;
57746;SDS011;43580;44.014;20.466;2022-07-21T02:43:13;6.50;;;3.75;;
57746;SDS011;43580;44.014;20.466;2022-07-21T02:45:39;6.70;;;3.92;;
57746;SDS011;43580;44.014;20.466;2022-07-21T02:48:07;4.78;;;3.47;;
57746;SDS011;43580;44.014;20.466;2022-07-21T02:50:34;6.18;;;3.97;;
57746;SDS011;43580;44.014;20.466;2022-07-21T02:53:02;7.95;;;4.55;;
57746;SDS011;43580;44.014;20.466;2022-07-21T02:55:29;7.20;;;3.85;;
57746;SDS011;43580;44.014;20.466;2022-07-21T03:00:37;6.65;;;4.00;;
57746;SDS011;43580;44.014;20.466;2022-07-21T03:03:04;7.30;;;4.13;;
57746;SDS011;43580;44.014;20.466;2022-07-21T03:05:30;6.40;;;3.72;;
57746;SDS011;43580;44.014;20.466;2022-07-21T03:07:57;6.45;;;3.83;;
57746;SDS011;43580;44.014;20.466;2022-07-21T03:10:23;8.52;;;3.95;;
57746;SDS011;43580;44.014;20.466;2022-07-21T03:12:54;6.90;;;4.10;;
57746;SDS011;43580;44.014;20.466;2022-07-21T03:15:20;12.90;;;4.30;;
57746;SDS011;43580;44.014;20.466;2022-07-21T03:17:46;6.35;;;3.65;;
57746;SDS011;43580;44.014;20.466;2022-07-21T03:20:12;7.93;;;4.07;;
57746;SDS011;43580;44.014;20.466;2022-07-21T03:22:38;7.43;;;3.78;;
57746;SDS011;43580;44.014;20.466;2022-07-21T03:25:04;8.88;;;3.90;;
57746;SDS011;43580;44.014;20.466;2022-07-21T03:27:31;7.35;;;4.30;;
57746;SDS011;43580;44.014;20.466;2022-07-21T03:30:01;6.38;;;3.67;;
57746;SDS011;43580;44.014;20.466;2022-07-21T03:32:27;11.30;;;3.97;;
57746;SDS011;43580;44.014;20.466;2022-07-21T03:34:53;7.97;;;3.92;;
57746;SDS011;43580;44.014;20.466;2022-07-21T03:37:24;8.88;;;3.92;;
57746;SDS011;43580;44.014;20.466;2022-07-21T03:39:53;10.63;;;5.00;;
57746;SDS011;43580;44.014;20.466;2022-07-21T03:42:21;8.82;;;4.65;;
57746;SDS011;43580;44.014;20.466;2022-07-21T03:44:47;8.05;;;4.22;;
57746;SDS011;43580;44.014;20.466;2022-07-21T03:47:13;10.15;;;4.43;;
57746;SDS011;43580;44.014;20.466;2022-07-21T03:49:40;7.70;;;4.05;;
57746;SDS011;43580;44.014;20.466;2022-07-21T03:52:06;7.15;;;4.22;;
57746;SDS011;43580;44.014;20.466;2022-07-21T03:54:37;6.65;;;3.88;;
57746;SDS011;43580;44.014;20.466;2022-07-21T03:57:03;7.07;;;4.53;;
57746;SDS011;43580;44.014;20.466;2022-07-21T03:59:29;7.78;;;4.38;;
57746;SDS011;43580;44.014;20.466;2022-07-21T04:01:57;10.40;;;4.03;;
57746;SDS011;43580;44.014;20.466;2022-07-21T04:04:23;7.45;;;4.13;;
57746;SDS011;43580;44.014;20.466;2022-07-21T04:06:49;8.07;;;4.00;;
57746;SDS011;43580;44.014;20.466;2022-07-21T04:09:20;9.45;;;4.03;;
57746;SDS011;43580;44.014;20.466;2022-07-21T04:11:46;9.32;;;5.03;;
57746;SDS011;43580;44.014;20.466;2022-07-21T04:14:12;8.68;;;4.13;;
57746;SDS011;43580;44.014;20.466;2022-07-21T04:16:39;9.40;;;4.72;;
57746;SDS011;43580;44.014;20.466;2022-07-21T04:19:05;13.25;;;4.50;;
57746;SDS011;43580;44.014;20.466;2022-07-21T04:21:31;9.60;;;4.85;;
57746;SDS011;43580;44.014;20.466;2022-07-21T04:23:57;7.50;;;3.80;;
57746;SDS011;43580;44.014;20.466;2022-07-21T04:26:23;8.07;;;4.40;;
57746;SDS011;43580;44.014;20.466;2022-07-21T04:28:49;7.97;;;4.68;;
57746;SDS011;43580;44.014;20.466;2022-07-21T04:31:15;13.10;;;4.93;;
57746;SDS011;43580;44.014;20.466;2022-07-21T04:33:41;11.52;;;4.63;;
57746;SDS011;43580;44.014;20.466;2022-07-21T04:36:07;7.47;;;4.45;;
57746;SDS011;43580;44.014;20.466;2022-07-21T04:38:34;8.07;;;5.00;;
57746;SDS011;43580;44.014;20.466;2022-07-21T04:41:00;9.23;;;4.70;;
57746;SDS011;43580;44.014;20.466;2022-07-21T04:43:26;9.55;;;5.00;;
57746;SDS011;43580;44.014;20.466;2022-07-21T04:45:52;8.90;;;4.88;;
57746;SDS011;43580;44.014;20.466;2022-07-21T04:48:18;12.65;;;4.65;;
57746;SDS011;43580;44.014;20.466;2022-07-21T04:50:44;8.23;;;4.28;;
57746;SDS011;43580;44.014;20.466;2022-07-21T04:53:10;10.00;;;4.35;;
57746;SDS011;43580;44.014;20.466;2022-07-21T04:55:36;7.38;;;4.55;;
57746;SDS011;43580;44.014;20.466;2022-07-21T04:58:02;11.52;;;4.72;;
57746;SDS011;43580;44.014;20.466;2022-07-21T05:00:28;22.52;;;8.73;;
57746;SDS011;43580;44.014;20.466;2022-07-21T05:02:57;15.20;;;7.30;;
57746;SDS011;43580;44.014;20.466;2022-07-21T05:05:23;18.20;;;11.68;;
57746;SDS011;43580;44.014;20.466;2022-07-21T05:07:49;21.67;;;10.65;;
57746;SDS011;43580;44.014;20.466;2022-07-21T05:10:16;12.38;;;5.63;;
57746;SDS011;43580;44.014;20.466;2022-07-21T05:12:43;8.73;;;4.18;;
57746;SDS011;43580;44.014;20.466;2022-07-21T05:15:09;10.10;;;5.05;;
57746;SDS011;43580;44.014;20.466;2022-07-21T05:17:36;10.02;;;4.68;;
57746;SDS011;43580;44.014;20.466;2022-07-21T05:20:03;13.63;;;4.88;;
57746;SDS011;43580;44.014;20.466;2022-07-21T05:22:29;12.50;;;5.10;;
57746;SDS011;43580;44.014;20.466;2022-07-21T05:24:55;14.52;;;7.75;;
57746;SDS011;43580;44.014;20.466;2022-07-21T05:27:21;8.10;;;4.43;;
57746;SDS011;43580;44.014;20.466;2022-07-21T05:29:47;7.10;;;4.03;;
57746;SDS011;43580;44.014;20.466;2022-07-21T05:32:14;10.02;;;4.38;;
57746;SDS011;43580;44.014;20.466;2022-07-21T05:34:40;10.85;;;4.30;;
57746;SDS011;43580;44.014;20.466;2022-07-21T05:37:06;6.90;;;4.32;;
57746;SDS011;43580;44.014;20.466;2022-07-21T05:39:32;11.25;;;4.75;;
57746;SDS011;43580;44.014;20.466;2022-07-21T05:41:58;10.48;;;3.85;;
57746;SDS011;43580;44.014;20.466;2022-07-21T05:44:25;13.15;;;4.53;;
57746;SDS011;43580;44.014;20.466;2022-07-21T05:46:51;12.02;;;4.13;;
57746;SDS011;43580;44.014;20.466;2022-07-21T05:49:17;11.43;;;3.88;;
57746;SDS011;43580;44.014;20.466;2022-07-21T05:51:43;7.85;;;3.88;;
57746;SDS011;43580;44.014;20.466;2022-07-21T05:54:09;8.57;;;4.00;;
57746;SDS011;43580;44.014;20.466;2022-07-21T05:56:35;12.70;;;4.47;;
57746;SDS011;43580;44.014;20.466;2022-07-21T05:59:04;10.02;;;5.03;;
57746;SDS011;43580;44.014;20.466;2022-07-21T06:01:33;7.78;;;4.38;;
57746;SDS011;43580;44.014;20.466;2022-07-21T06:03:59;11.55;;;5.80;;
57746;SDS011;43580;44.014;20.466;2022-07-21T06:06:25;12.30;;;6.05;;
57746;SDS011;43580;44.014;20.466;2022-07-21T06:08:51;10.68;;;4.10;;
57746;SDS011;43580;44.014;20.466;2022-07-21T06:11:18;13.13;;;4.40;;
57746;SDS011;43580;44.014;20.466;2022-07-21T06:13:44;12.07;;;4.05;;
57746;SDS011;43580;44.014;20.466;2022-07-21T06:16:10;9.38;;;3.90;;
57746;SDS011;43580;44.014;20.466;2022-07-21T06:18:40;15.43;;;4.85;;
57746;SDS011;43580;44.014;20.466;2022-07-21T06:21:06;9.88;;;4.10;;
57746;SDS011;43580;44.014;20.466;2022-07-21T06:23:32;10.13;;;4.22;;
57746;SDS011;43580;44.014;20.466;2022-07-21T06:25:58;8.05;;;4.00;;
57746;SDS011;43580;44.014;20.466;2022-07-21T06:28:26;7.53;;;4.03;;
57746;SDS011;43580;44.014;20.466;2022-07-21T06:30:53;8.02;;;3.65;;
57746;SDS011;43580;44.014;20.466;2022-07-21T06:33:20;7.97;;;4.15;;
57746;SDS011;43580;44.014;20.466;2022-07-21T06:35:46;10.63;;;4.20;;
57746;SDS011;43580;44.014;20.466;2022-07-21T06:38:12;9.40;;;4.80;;
57746;SDS011;43580;44.014;20.466;2022-07-21T06:40:38;12.32;;;4.68;;
57746;SDS011;43580;44.014;20.466;2022-07-21T06:43:04;16.20;;;4.20;;
57746;SDS011;43580;44.014;20.466;2022-07-21T06:45:30;9.80;;;4.25;;
57746;SDS011;43580;44.014;20.466;2022-07-21T06:48:06;14.68;;;4.63;;
57746;SDS011;43580;44.014;20.466;2022-07-21T06:50:33;6.63;;;3.53;;
57746;SDS011;43580;44.014;20.466;2022-07-21T06:52:59;11.20;;;5.25;;
57746;SDS011;43580;44.014;20.466;2022-07-21T06:55:25;12.40;;;5.45;;
57746;SDS011;43580;44.014;20.466;2022-07-21T06:57:52;11.38;;;5.35;;
57746;SDS011;43580;44.014;20.466;2022-07-21T07:00:18;13.10;;;4.45;;
57746;SDS011;43580;44.014;20.466;2022-07-21T07:02:45;11.90;;;4.53;;
57746;SDS011;43580;44.014;20.466;2022-07-21T07:05:11;8.35;;;3.78;;
57746;SDS011;43580;44.014;20.466;2022-07-21T07:07:37;11.48;;;3.80;;
57746;SDS011;43580;44.014;20.466;2022-07-21T07:10:03;7.60;;;3.88;;
57746;SDS011;43580;44.014;20.466;2022-07-21T07:12:29;8.20;;;3.40;;
57746;SDS011;43580;44.014;20.466;2022-07-21T07:14:55;5.20;;;3.28;;
57746;SDS011;43580;44.014;20.466;2022-07-21T07:17:22;7.55;;;3.72;;
57746;SDS011;43580;44.014;20.466;2022-07-21T07:19:48;6.30;;;3.00;;
57746;SDS011;43580;44.014;20.466;2022-07-21T07:22:14;7.20;;;2.88;;
57746;SDS011;43580;44.014;20.466;2022-07-21T07:24:40;8.88;;;5.15;;
57746;SDS011;43580;44.014;20.466;2022-07-21T07:27:06;8.88;;;3.30;;
57746;SDS011;43580;44.014;20.466;2022-07-21T07:29:32;11.35;;;3.42;;
57746;SDS011;43580;44.014;20.466;2022-07-21T07:31:59;5.20;;;2.75;;
57746;SDS011;43580;44.014;20.466;2022-07-21T07:34:25;6.05;;;3.05;;
57746;SDS011;43580;44.014;20.466;2022-07-21T07:36:51;7.85;;;3.60;;
57746;SDS011;43580;44.014;20.466;2022-07-21T07:39:17;6.40;;;3.55;;
57746;SDS011;43580;44.014;20.466;2022-07-21T07:41:43;12.57;;;3.95;;
57746;SDS011;43580;44.014;20.466;2022-07-21T07:44:09;7.78;;;3.53;;
57746;SDS011;43580;44.014;20.466;2022-07-21T07:46:36;7.80;;;3.47;;
57746;SDS011;43580;44.014;20.466;2022-07-21T07:49:07;13.82;;;3.53;;
57746;SDS011;43580;44.014;20.466;2022-07-21T07:51:36;15.40;;;3.75;;
57746;SDS011;43580;44.014;20.466;2022-07-21T07:54:02;10.70;;;3.20;;
57746;SDS011;43580;44.014;20.466;2022-07-21T07:56:29;10.25;;;3.35;;
57746;SDS011;43580;44.014;20.466;2022-07-21T07:58:55;10.02;;;3.80;;
57746;SDS011;43580;44.014;20.466;2022-07-21T08:01:21;11.27;;;3.60;;
57746;SDS011;43580;44.014;20.466;2022-07-21T08:03:47;5.03;;;2.78;;
57746;SDS011;43580;44.014;20.466;2022-07-21T08:06:13;7.05;;;3.63;;
57746;SDS011;43580;44.014;20.466;2022-07-21T08:08:39;9.85;;;3.13;;
57746;SDS011;43580;44.014;20.466;2022-07-21T08:11:05;8.63;;;3.00;;
57746;SDS011;43580;44.014;20.466;2022-07-21T08:13:31;8.05;;;3.30;;
57746;SDS011;43580;44.014;20.466;2022-07-21T08:16:02;6.15;;;3.08;;
57746;SDS011;43580;44.014;20.466;2022-07-21T08:18:29;7.05;;;3.08;;
57746;SDS011;43580;44.014;20.466;2022-07-21T08:20:55;8.18;;;3.30;;
57746;SDS011;43580;44.014;20.466;2022-07-21T08:23:21;7.80;;;3.15;;
57746;SDS011;43580;44.014;20.466;2022-07-21T08:25:47;5.57;;;3.15;;
57746;SDS011;43580;44.014;20.466;2022-07-21T08:28:13;12.20;;;4.05;;
57746;SDS011;43580;44.014;20.466;2022-07-21T08:30:39;9.85;;;3.30;;
57746;SDS011;43580;44.014;20.466;2022-07-21T08:33:05;5.07;;;3.03;;
57746;SDS011;43580;44.014;20.466;2022-07-21T08:35:32;7.95;;;2.72;;
57746;SDS011;43580;44.014;20.466;2022-07-21T08:38:03;5.72;;;3.03;;
57746;SDS011;43580;44.014;20.466;2022-07-21T08:40:32;7.97;;;3.08;;
57746;SDS011;43580;44.014;20.466;2022-07-21T08:42:59;6.43;;;2.63;;
57746;SDS011;43580;44.014;20.466;2022-07-21T08:45:26;7.68;;;3.03;;
57746;SDS011;43580;44.014;20.466;2022-07-21T08:47:53;12.57;;;2.78;;
57746;SDS011;43580;44.014;20.466;2022-07-21T08:50:21;7.63;;;2.80;;
57746;SDS011;43580;44.014;20.466;2022-07-21T08:52:50;7.60;;;2.80;;
57746;SDS011;43580;44.014;20.466;2022-07-21T08:55:18;11.57;;;2.60;;
57746;SDS011;43580;44.014;20.466;2022-07-21T08:57:45;9.68;;;3.30;;
57746;SDS011;43580;44.014;20.466;2022-07-21T09:00:11;7.68;;;3.17;;
57746;SDS011;43580;44.014;20.466;2022-07-21T09:02:39;4.75;;;2.80;;
57746;SDS011;43580;44.014;20.466;2022-07-21T09:05:06;9.15;;;3.33;;
57746;SDS011;43580;44.014;20.466;2022-07-21T09:07:53;6.00;;;3.15;;
57746;SDS011;43580;44.014;20.466;2022-07-21T09:10:27;4.65;;;2.28;;
57746;SDS011;43580;44.014;20.466;2022-07-21T09:12:54;7.78;;;3.20;;
57746;SDS011;43580;44.014;20.466;2022-07-21T09:15:21;8.30;;;2.60;;
57746;SDS011;43580;44.014;20.466;2022-07-21T09:18:07;4.82;;;2.35;;
57746;SDS011;43580;44.014;20.466;2022-07-21T09:20:34;4.93;;;2.20;;
57746;SDS011;43580;44.014;20.466;2022-07-21T09:23:04;10.10;;;2.65;;
57746;SDS011;43580;44.014;20.466;2022-07-21T09:25:37;7.85;;;2.80;;
57746;SDS011;43580;44.014;20.466;2022-07-21T09:33:18;10.10;;;2.42;;
57746;SDS011;43580;44.014;20.466;2022-07-21T09:35:58;5.47;;;2.60;;
57746;SDS011;43580;44.014;20.466;2022-07-21T09:38:25;5.68;;;2.67;;
57746;SDS011;43580;44.014;20.466;2022-07-21T09:40:51;7.72;;;2.70;;
57746;SDS011;43580;44.014;20.466;2022-07-21T09:48:43;6.80;;;3.05;;
57746;SDS011;43580;44.014;20.466;2022-07-21T09:54:04;6.78;;;2.67;;
57746;SDS011;43580;44.014;20.466;2022-07-21T09:56:32;13.13;;;3.33;;
57746;SDS011;43580;44.014;20.466;2022-07-21T09:58:59;10.45;;;3.53;;
57746;SDS011;43580;44.014;20.466;2022-07-21T10:01:26;5.47;;;2.75;;
57746;SDS011;43580;44.014;20.466;2022-07-21T10:03:53;8.82;;;2.95;;
57746;SDS011;43580;44.014;20.466;2022-07-21T10:06:23;7.00;;;2.70;;
57746;SDS011;43580;44.014;20.466;2022-07-21T10:08:49;6.47;;;2.58;;
57746;SDS011;43580;44.014;20.466;2022-07-21T10:11:15;6.35;;;2.72;;
57746;SDS011;43580;44.014;20.466;2022-07-21T10:13:41;10.75;;;2.75;;
57746;SDS011;43580;44.014;20.466;2022-07-21T10:16:09;9.18;;;3.10;;
57746;SDS011;43580;44.014;20.466;2022-07-21T10:21:32;8.50;;;2.75;;
57746;SDS011;43580;44.014;20.466;2022-07-21T10:24:01;18.02;;;3.65;;
57746;SDS011;43580;44.014;20.466;2022-07-21T10:26:27;9.02;;;3.03;;
57746;SDS011;43580;44.014;20.466;2022-07-21T10:28:54;9.85;;;3.17;;
57746;SDS011;43580;44.014;20.466;2022-07-21T10:31:20;5.78;;;3.08;;
57746;SDS011;43580;44.014;20.466;2022-07-21T10:36:38;9.70;;;3.55;;
57746;SDS011;43580;44.014;20.466;2022-07-21T10:41:44;8.38;;;3.20;;
57746;SDS011;43580;44.014;20.466;2022-07-21T10:50:08;8.02;;;3.75;;
57746;SDS011;43580;44.014;20.466;2022-07-21T11:02:44;10.20;;;3.10;;
57746;SDS011;43580;44.014;20.466;2022-07-21T11:05:11;8.13;;;3.13;;
57746;SDS011;43580;44.014;20.466;2022-07-21T11:10:22;11.32;;;4.00;;
57746;SDS011;43580;44.014;20.466;2022-07-21T11:12:56;10.68;;;3.08;;
57746;SDS011;43580;44.014;20.466;2022-07-21T11:18:08;4.28;;;3.20;;
57746;SDS011;43580;44.014;20.466;2022-07-21T11:20:34;8.68;;;3.55;;
57746;SDS011;43580;44.014;20.466;2022-07-21T11:23:00;8.15;;;3.20;;
57746;SDS011;43580;44.014;20.466;2022-07-21T11:25:34;8.50;;;3.35;;
57746;SDS011;43580;44.014;20.466;2022-07-21T11:28:00;11.48;;;3.88;;
57746;SDS011;43580;44.014;20.466;2022-07-21T11:30:26;8.77;;;3.50;;
57746;SDS011;43580;44.014;20.466;2022-07-21T11:32:52;10.05;;;3.20;;
57746;SDS011;43580;44.014;20.466;2022-07-21T11:35:18;10.68;;;3.22;;
57746;SDS011;43580;44.014;20.466;2022-07-21T11:37:45;9.77;;;3.70;;
57746;SDS011;43580;44.014;20.466;2022-07-21T11:40:16;6.20;;;3.30;;
57746;SDS011;43580;44.014;20.466;2022-07-21T11:42:43;10.98;;;3.60;;
57746;SDS011;43580;44.014;20.466;2022-07-21T11:45:10;5.97;;;3.38;;
57746;SDS011;43580;44.014;20.466;2022-07-21T11:47:36;6.35;;;3.22;;
57746;SDS011;43580;44.014;20.466;2022-07-21T11:50:04;9.82;;;4.00;;
57746;SDS011;43580;44.014;20.466;2022-07-21T11:52:33;7.60;;;3.28;;
57746;SDS011;43580;44.014;20.466;2022-07-21T11:55:00;8.20;;;3.42;;
57746;SDS011;43580;44.014;20.466;2022-07-21T11:57:27;9.57;;;3.38;;
57746;SDS011;43580;44.014;20.466;2022-07-21T11:59:54;8.52;;;3.30;;
57746;SDS011;43580;44.014;20.466;2022-07-21T12:02:24;9.55;;;3.60;;
57746;SDS011;43580;44.014;20.466;2022-07-21T12:04:51;7.00;;;3.42;;
57746;SDS011;43580;44.014;20.466;2022-07-21T12:07:22;7.85;;;3.75;;
57746;SDS011;43580;44.014;20.466;2022-07-21T12:09:50;7.45;;;4.18;;
57746;SDS011;43580;44.014;20.466;2022-07-21T12:12:26;9.63;;;3.60;;
57746;SDS011;43580;44.014;20.466;2022-07-21T12:14:53;11.57;;;4.20;;
57746;SDS011;43580;44.014;20.466;2022-07-21T12:17:32;11.50;;;4.18;;
57746;SDS011;43580;44.014;20.466;2022-07-21T12:19:59;12.38;;;3.90;;
57746;SDS011;43580;44.014;20.466;2022-07-21T12:25:31;16.80;;;4.28;;
57746;SDS011;43580;44.014;20.466;2022-07-21T12:28:00;14.25;;;3.78;;
57746;SDS011;43580;44.014;20.466;2022-07-21T12:30:31;12.48;;;3.63;;
57746;SDS011;43580;44.014;20.466;2022-07-21T12:33:04;12.93;;;3.23;;
57746;SDS011;43580;44.014;20.466;2022-07-21T12:35:30;13.82;;;3.70;;
57746;SDS011;43580;44.014;20.466;2022-07-21T12:37:58;8.27;;;3.25;;
57746;SDS011;43580;44.014;20.466;2022-07-21T12:40:25;14.45;;;3.58;;
57746;SDS011;43580;44.014;20.466;2022-07-21T12:43:02;6.70;;;3.40;;
57746;SDS011;43580;44.014;20.466;2022-07-21T12:45:28;5.03;;;3.03;;
57746;SDS011;43580;44.014;20.466;2022-07-21T12:48:05;9.20;;;3.75;;
57746;SDS011;43580;44.014;20.466;2022-07-21T12:50:31;7.93;;;3.80;;
57746;SDS011;43580;44.014;20.466;2022-07-21T12:52:58;7.78;;;3.35;;
57746;SDS011;43580;44.014;20.466;2022-07-21T12:55:24;8.15;;;4.15;;
57746;SDS011;43580;44.014;20.466;2022-07-21T12:57:50;10.70;;;3.70;;
57746;SDS011;43580;44.014;20.466;2022-07-21T13:00:19;5.57;;;3.80;;
57746;SDS011;43580;44.014;20.466;2022-07-21T13:02:48;6.45;;;3.38;;
57746;SDS011;43580;44.014;20.466;2022-07-21T13:05:15;10.40;;;3.78;;
57746;SDS011;43580;44.014;20.466;2022-07-21T13:07:41;9.15;;;3.38;;
57746;SDS011;43580;44.014;20.466;2022-07-21T13:10:07;10.20;;;3.80;;
57746;SDS011;43580;44.014;20.466;2022-07-21T13:12:33;10.15;;;3.80;;
57746;SDS011;43580;44.014;20.466;2022-07-21T13:14:59;11.73;;;3.70;;
57746;SDS011;43580;44.014;20.466;2022-07-21T13:17:25;8.68;;;3.47;;
57746;SDS011;43580;44.014;20.466;2022-07-21T13:19:54;8.07;;;3.47;;
57746;SDS011;43580;44.014;20.466;2022-07-21T13:22:21;7.03;;;3.80;;
57746;SDS011;43580;44.014;20.466;2022-07-21T13:24:47;7.45;;;3.40;;
57746;SDS011;43580;44.014;20.466;2022-07-21T13:27:13;8.30;;;4.72;;
57746;SDS011;43580;44.014;20.466;2022-07-21T13:29:39;8.73;;;3.88;;
57746;SDS011;43580;44.014;20.466;2022-07-21T13:32:06;10.25;;;4.40;;
57746;SDS011;43580;44.014;20.466;2022-07-21T13:34:33;8.65;;;4.43;;
57746;SDS011;43580;44.014;20.466;2022-07-21T13:36:59;6.32;;;3.70;;
57746;SDS011;43580;44.014;20.466;2022-07-21T13:39:25;10.45;;;3.45;;
57746;SDS011;43580;44.014;20.466;2022-07-21T13:41:52;9.48;;;3.75;;
57746;SDS011;43580;44.014;20.466;2022-07-21T13:44:18;9.35;;;4.32;;
57746;SDS011;43580;44.014;20.466;2022-07-21T13:46:44;9.40;;;3.72;;
57746;SDS011;43580;44.014;20.466;2022-07-21T13:49:10;8.07;;;3.20;;
57746;SDS011;43580;44.014;20.466;2022-07-21T13:51:36;9.10;;;3.90;;
57746;SDS011;43580;44.014;20.466;2022-07-21T13:54:03;9.23;;;3.90;;
57746;SDS011;43580;44.014;20.466;2022-07-21T13:56:29;9.05;;;4.00;;
57746;SDS011;43580;44.014;20.466;2022-07-21T13:58:55;10.05;;;3.25;;
57746;SDS011;43580;44.014;20.466;2022-07-21T14:01:21;7.57;;;3.40;;
57746;SDS011;43580;44.014;20.466;2022-07-21T14:03:48;9.20;;;3.83;;
57746;SDS011;43580;44.014;20.466;2022-07-21T14:06:15;6.20;;;3.40;;
57746;SDS011;43580;44.014;20.466;2022-07-21T14:08:41;11.40;;;3.92;;
57746;SDS011;43580;44.014;20.466;2022-07-21T14:11:07;10.02;;;3.10;;
57746;SDS011;43580;44.014;20.466;2022-07-21T14:13:34;12.55;;;4.18;;
57746;SDS011;43580;44.014;20.466;2022-07-21T14:16:02;6.90;;;3.88;;
57746;SDS011;43580;44.014;20.466;2022-07-21T14:18:29;10.50;;;3.30;;
57746;SDS011;43580;44.014;20.466;2022-07-21T14:20:55;9.18;;;3.53;;
57746;SDS011;43580;44.014;20.466;2022-07-21T14:23:21;11.18;;;3.70;;
57746;SDS011;43580;44.014;20.466;2022-07-21T14:25:48;11.90;;;3.53;;
57746;SDS011;43580;44.014;20.466;2022-07-21T14:28:15;9.38;;;3.00;;
57746;SDS011;43580;44.014;20.466;2022-07-21T14:30:41;7.57;;;3.42;;
57746;SDS011;43580;44.014;20.466;2022-07-21T14:33:07;11.85;;;3.30;;
57746;SDS011;43580;44.014;20.466;2022-07-21T14:35:34;5.25;;;3.70;;
57746;SDS011;43580;44.014;20.466;2022-07-21T14:38:00;11.38;;;3.55;;
57746;SDS011;43580;44.014;20.466;2022-07-21T14:40:28;9.07;;;3.30;;
57746;SDS011;43580;44.014;20.466;2022-07-21T14:42:58;10.75;;;4.07;;
57746;SDS011;43580;44.014;20.466;2022-07-21T14:45:24;12.15;;;3.80;;
57746;SDS011;43580;44.014;20.466;2022-07-21T14:47:50;14.30;;;3.60;;
57746;SDS011;43580;44.014;20.466;2022-07-21T14:50:17;15.38;;;4.35;;
57746;SDS011;43580;44.014;20.466;2022-07-21T14:52:43;10.85;;;3.80;;
57746;SDS011;43580;44.014;20.466;2022-07-21T14:55:09;7.80;;;3.80;;
57746;SDS011;43580;44.014;20.466;2022-07-21T14:57:36;19.10;;;3.50;;
57746;SDS011;43580;44.014;20.466;2022-07-21T15:00:05;9.23;;;3.08;;
57746;SDS011;43580;44.014;20.466;2022-07-21T15:02:31;7.30;;;3.40;;
57746;SDS011;43580;44.014;20.466;2022-07-21T15:04:58;11.23;;;3.55;;
57746;SDS011;43580;44.014;20.466;2022-07-21T15:07:27;8.30;;;3.67;;
57746;SDS011;43580;44.014;20.466;2022-07-21T15:09:53;8.88;;;2.90;;
57746;SDS011;43580;44.014;20.466;2022-07-21T15:12:23;12.75;;;3.67;;
57746;SDS011;43580;44.014;20.466;2022-07-21T15:14:49;8.80;;;3.40;;
57746;SDS011;43580;44.014;20.466;2022-07-21T15:17:15;8.68;;;3.15;;
57746;SDS011;43580;44.014;20.466;2022-07-21T15:19:42;5.93;;;2.88;;